LPLA METAR and TAF weather

Enter ICAO airport designator
Station Type Date Time Source
LPLA METAR 2021/09/27 06:00 UTC NOAA

LPLA 270600Z /////KT 9999 FEW025 OVC040 20/16 Q1023


Station Type Date Time Source
LPLA Decoded METAR 2021/09/27 06:00 UTC NOAA

Lajes Acores , Portugal (LPLA) 38-46N 027-06W 54M
Sep 27, 2021 - 02:00 AM EDT / 2021.09.27 0600 UTC
Visibility: greater than 7 mile(s):0
Sky conditions: overcast
Temperature: 68 F (20 C)
Dew Point: 60 F (16 C)
Relative Humidity: 77%
Pressure (altimeter): 30.21 in. Hg (1023 hPa)
ob: LPLA 270600Z /////KT 9999 FEW025 OVC040 20/16 Q1023
cycle: 6

Station Type Date Time Source
LPLA TAF 2021/09/27 06:18 UTC NOAA

TAF LPLA 270507Z 2706/2806 04010KT 9999 SCT015 BKN025 PROB30
TEMPO 2708/2714 05012G22KT 3000 SHRA SCT008 BKN014 FEW020TCU

Example: see airport list